sensor_id;sensor_type;location;lat;lon;timestamp;P1;durP1;ratioP1;P2;durP2;ratioP2
15354;SDS011;7777;52.254;9.618;2023-04-06T00:01:48;8.83;;;5.90;;
15354;SDS011;7777;52.254;9.618;2023-04-06T00:04:15;6.83;;;5.03;;
15354;SDS011;7777;52.254;9.618;2023-04-06T00:06:41;10.37;;;4.93;;
15354;SDS011;7777;52.254;9.618;2023-04-06T00:09:07;7.73;;;5.03;;
15354;SDS011;7777;52.254;9.618;2023-04-06T00:11:33;6.07;;;4.80;;
15354;SDS011;7777;52.254;9.618;2023-04-06T00:13:59;8.60;;;5.30;;
15354;SDS011;7777;52.254;9.618;2023-04-06T00:16:25;6.23;;;4.80;;
15354;SDS011;7777;52.254;9.618;2023-04-06T00:18:50;8.13;;;5.50;;
15354;SDS011;7777;52.254;9.618;2023-04-06T00:21:16;7.40;;;5.03;;
15354;SDS011;7777;52.254;9.618;2023-04-06T00:23:42;11.30;;;5.30;;
15354;SDS011;7777;52.254;9.618;2023-04-06T00:26:08;6.37;;;4.97;;
15354;SDS011;7777;52.254;9.618;2023-04-06T00:28:35;7.90;;;4.80;;
15354;SDS011;7777;52.254;9.618;2023-04-06T00:31:02;6.50;;;4.50;;
15354;SDS011;7777;52.254;9.618;2023-04-06T00:33:28;7.57;;;5.27;;
15354;SDS011;7777;52.254;9.618;2023-04-06T00:35:53;11.30;;;6.10;;
15354;SDS011;7777;52.254;9.618;2023-04-06T00:38:19;7.63;;;5.70;;
15354;SDS011;7777;52.254;9.618;2023-04-06T00:40:45;9.20;;;5.90;;
15354;SDS011;7777;52.254;9.618;2023-04-06T00:43:11;8.30;;;5.60;;
15354;SDS011;7777;52.254;9.618;2023-04-06T00:45:37;7.43;;;5.57;;
15354;SDS011;7777;52.254;9.618;2023-04-06T00:48:05;7.53;;;5.13;;
15354;SDS011;7777;52.254;9.618;2023-04-06T00:50:32;5.90;;;5.20;;
15354;SDS011;7777;52.254;9.618;2023-04-06T00:53:01;7.03;;;5.50;;
15354;SDS011;7777;52.254;9.618;2023-04-06T00:55:27;8.63;;;5.97;;
15354;SDS011;7777;52.254;9.618;2023-04-06T00:57:53;6.83;;;5.63;;
15354;SDS011;7777;52.254;9.618;2023-04-06T01:00:22;8.50;;;5.67;;
15354;SDS011;7777;52.254;9.618;2023-04-06T01:02:49;9.90;;;6.57;;
15354;SDS011;7777;52.254;9.618;2023-04-06T01:05:15;10.17;;;5.87;;
15354;SDS011;7777;52.254;9.618;2023-04-06T01:07:41;9.83;;;6.07;;
15354;SDS011;7777;52.254;9.618;2023-04-06T01:10:07;12.80;;;6.30;;
15354;SDS011;7777;52.254;9.618;2023-04-06T01:12:33;9.67;;;5.70;;
15354;SDS011;7777;52.254;9.618;2023-04-06T01:14:59;6.83;;;5.77;;
15354;SDS011;7777;52.254;9.618;2023-04-06T01:17:24;7.87;;;6.40;;
15354;SDS011;7777;52.254;9.618;2023-04-06T01:19:50;8.57;;;6.40;;
15354;SDS011;7777;52.254;9.618;2023-04-06T01:22:18;11.70;;;6.77;;
15354;SDS011;7777;52.254;9.618;2023-04-06T01:24:44;11.13;;;6.67;;
15354;SDS011;7777;52.254;9.618;2023-04-06T01:27:11;8.30;;;6.03;;
15354;SDS011;7777;52.254;9.618;2023-04-06T01:29:37;7.30;;;6.20;;
15354;SDS011;7777;52.254;9.618;2023-04-06T01:32:06;7.70;;;5.63;;
15354;SDS011;7777;52.254;9.618;2023-04-06T01:34:32;9.00;;;6.30;;
15354;SDS011;7777;52.254;9.618;2023-04-06T01:36:58;8.37;;;5.47;;
15354;SDS011;7777;52.254;9.618;2023-04-06T01:39:24;8.93;;;6.00;;
15354;SDS011;7777;52.254;9.618;2023-04-06T01:41:50;6.93;;;5.37;;
15354;SDS011;7777;52.254;9.618;2023-04-06T01:44:16;7.90;;;6.00;;
15354;SDS011;7777;52.254;9.618;2023-04-06T01:46:43;10.30;;;5.83;;
15354;SDS011;7777;52.254;9.618;2023-04-06T01:49:09;8.07;;;5.70;;
15354;SDS011;7777;52.254;9.618;2023-04-06T01:51:35;10.03;;;5.23;;
15354;SDS011;7777;52.254;9.618;2023-04-06T01:54:00;8.33;;;5.07;;
15354;SDS011;7777;52.254;9.618;2023-04-06T01:56:26;8.80;;;5.33;;
15354;SDS011;7777;52.254;9.618;2023-04-06T01:58:52;8.20;;;5.17;;
15354;SDS011;7777;52.254;9.618;2023-04-06T02:01:17;7.23;;;5.13;;
15354;SDS011;7777;52.254;9.618;2023-04-06T02:03:43;7.70;;;5.20;;
15354;SDS011;7777;52.254;9.618;2023-04-06T02:06:09;7.90;;;5.00;;
15354;SDS011;7777;52.254;9.618;2023-04-06T02:08:35;8.43;;;4.83;;
15354;SDS011;7777;52.254;9.618;2023-04-06T02:11:00;8.60;;;5.00;;
15354;SDS011;7777;52.254;9.618;2023-04-06T02:13:26;11.27;;;4.87;;
15354;SDS011;7777;52.254;9.618;2023-04-06T02:15:52;6.80;;;4.87;;
15354;SDS011;7777;52.254;9.618;2023-04-06T02:18:18;10.47;;;6.50;;
15354;SDS011;7777;52.254;9.618;2023-04-06T02:20:44;7.50;;;5.00;;
15354;SDS011;7777;52.254;9.618;2023-04-06T02:23:10;6.93;;;4.97;;
15354;SDS011;7777;52.254;9.618;2023-04-06T02:25:36;8.57;;;5.10;;
15354;SDS011;7777;52.254;9.618;2023-04-06T02:28:02;6.03;;;4.57;;
15354;SDS011;7777;52.254;9.618;2023-04-06T02:33:09;7.20;;;4.70;;
15354;SDS011;7777;52.254;9.618;2023-04-06T02:35:35;9.13;;;4.67;;
15354;SDS011;7777;52.254;9.618;2023-04-06T02:38:01;7.37;;;5.50;;
15354;SDS011;7777;52.254;9.618;2023-04-06T02:40:26;7.53;;;4.90;;
15354;SDS011;7777;52.254;9.618;2023-04-06T02:42:52;7.70;;;4.90;;
15354;SDS011;7777;52.254;9.618;2023-04-06T02:45:18;6.67;;;4.83;;
15354;SDS011;7777;52.254;9.618;2023-04-06T02:47:44;8.73;;;5.43;;
15354;SDS011;7777;52.254;9.618;2023-04-06T02:50:10;10.70;;;5.30;;
15354;SDS011;7777;52.254;9.618;2023-04-06T02:52:35;9.00;;;5.20;;
15354;SDS011;7777;52.254;9.618;2023-04-06T02:55:01;6.30;;;4.43;;
15354;SDS011;7777;52.254;9.618;2023-04-06T02:57:27;7.77;;;5.23;;
15354;SDS011;7777;52.254;9.618;2023-04-06T02:59:52;13.27;;;5.43;;
15354;SDS011;7777;52.254;9.618;2023-04-06T03:02:18;8.33;;;4.80;;
15354;SDS011;7777;52.254;9.618;2023-04-06T03:04:44;7.23;;;4.60;;
15354;SDS011;7777;52.254;9.618;2023-04-06T03:07:10;7.90;;;4.87;;
15354;SDS011;7777;52.254;9.618;2023-04-06T03:09:39;5.17;;;4.17;;
15354;SDS011;7777;52.254;9.618;2023-04-06T03:12:04;7.50;;;4.57;;
15354;SDS011;7777;52.254;9.618;2023-04-06T03:14:30;8.37;;;5.10;;
15354;SDS011;7777;52.254;9.618;2023-04-06T03:16:56;6.33;;;5.20;;
15354;SDS011;7777;52.254;9.618;2023-04-06T03:19:22;8.20;;;5.13;;
15354;SDS011;7777;52.254;9.618;2023-04-06T03:21:47;10.03;;;5.00;;
15354;SDS011;7777;52.254;9.618;2023-04-06T03:24:13;6.70;;;4.80;;
15354;SDS011;7777;52.254;9.618;2023-04-06T03:26:39;5.37;;;4.30;;
15354;SDS011;7777;52.254;9.618;2023-04-06T03:29:05;8.03;;;4.40;;
15354;SDS011;7777;52.254;9.618;2023-04-06T03:31:30;8.23;;;5.13;;
15354;SDS011;7777;52.254;9.618;2023-04-06T03:33:56;7.20;;;4.43;;
15354;SDS011;7777;52.254;9.618;2023-04-06T03:36:22;6.23;;;4.73;;
15354;SDS011;7777;52.254;9.618;2023-04-06T03:38:47;9.10;;;4.77;;
15354;SDS011;7777;52.254;9.618;2023-04-06T03:41:13;7.10;;;4.77;;
15354;SDS011;7777;52.254;9.618;2023-04-06T03:43:39;7.13;;;4.83;;
15354;SDS011;7777;52.254;9.618;2023-04-06T03:46:04;6.93;;;4.40;;
15354;SDS011;7777;52.254;9.618;2023-04-06T03:48:30;8.83;;;4.97;;
15354;SDS011;7777;52.254;9.618;2023-04-06T03:50:56;5.97;;;4.30;;
15354;SDS011;7777;52.254;9.618;2023-04-06T03:53:21;8.93;;;5.20;;
15354;SDS011;7777;52.254;9.618;2023-04-06T03:55:47;7.80;;;5.87;;
15354;SDS011;7777;52.254;9.618;2023-04-06T03:58:13;8.10;;;5.00;;
15354;SDS011;7777;52.254;9.618;2023-04-06T04:00:38;7.93;;;4.73;;
15354;SDS011;7777;52.254;9.618;2023-04-06T04:03:04;6.67;;;4.60;;
15354;SDS011;7777;52.254;9.618;2023-04-06T04:05:30;7.60;;;4.67;;
15354;SDS011;7777;52.254;9.618;2023-04-06T04:07:56;8.80;;;4.97;;
15354;SDS011;7777;52.254;9.618;2023-04-06T04:10:21;8.23;;;5.50;;
15354;SDS011;7777;52.254;9.618;2023-04-06T04:12:47;7.07;;;4.87;;
15354;SDS011;7777;52.254;9.618;2023-04-06T04:15:13;8.13;;;5.83;;
15354;SDS011;7777;52.254;9.618;2023-04-06T04:17:40;9.10;;;6.30;;
15354;SDS011;7777;52.254;9.618;2023-04-06T04:20:06;8.73;;;5.73;;
15354;SDS011;7777;52.254;9.618;2023-04-06T04:22:32;7.70;;;5.23;;
15354;SDS011;7777;52.254;9.618;2023-04-06T04:24:58;7.70;;;5.17;;
15354;SDS011;7777;52.254;9.618;2023-04-06T04:27:24;10.90;;;5.93;;
15354;SDS011;7777;52.254;9.618;2023-04-06T04:29:50;8.37;;;5.30;;
15354;SDS011;7777;52.254;9.618;2023-04-06T04:32:15;8.50;;;5.63;;
15354;SDS011;7777;52.254;9.618;2023-04-06T04:34:41;7.00;;;5.33;;
15354;SDS011;7777;52.254;9.618;2023-04-06T04:37:07;7.97;;;5.50;;
15354;SDS011;7777;52.254;9.618;2023-04-06T04:39:33;7.97;;;5.87;;
15354;SDS011;7777;52.254;9.618;2023-04-06T04:41:58;11.03;;;5.60;;
15354;SDS011;7777;52.254;9.618;2023-04-06T04:44:24;8.33;;;5.50;;
15354;SDS011;7777;52.254;9.618;2023-04-06T04:46:50;7.93;;;4.93;;
15354;SDS011;7777;52.254;9.618;2023-04-06T04:49:17;10.30;;;5.60;;
15354;SDS011;7777;52.254;9.618;2023-04-06T04:51:42;9.03;;;6.13;;
15354;SDS011;7777;52.254;9.618;2023-04-06T04:54:08;8.47;;;6.20;;
15354;SDS011;7777;52.254;9.618;2023-04-06T04:56:34;7.00;;;5.40;;
15354;SDS011;7777;52.254;9.618;2023-04-06T04:59:00;8.63;;;6.03;;
15354;SDS011;7777;52.254;9.618;2023-04-06T05:01:25;7.00;;;5.67;;
15354;SDS011;7777;52.254;9.618;2023-04-06T05:03:51;7.43;;;5.80;;
15354;SDS011;7777;52.254;9.618;2023-04-06T05:06:17;9.33;;;5.70;;
15354;SDS011;7777;52.254;9.618;2023-04-06T05:08:44;9.20;;;6.27;;
15354;SDS011;7777;52.254;9.618;2023-04-06T05:11:09;10.57;;;5.63;;
15354;SDS011;7777;52.254;9.618;2023-04-06T05:13:35;8.47;;;6.50;;
15354;SDS011;7777;52.254;9.618;2023-04-06T05:16:01;11.33;;;6.37;;
15354;SDS011;7777;52.254;9.618;2023-04-06T05:18:27;8.13;;;5.17;;
15354;SDS011;7777;52.254;9.618;2023-04-06T05:20:53;11.10;;;6.00;;
15354;SDS011;7777;52.254;9.618;2023-04-06T05:23:18;9.67;;;6.33;;
15354;SDS011;7777;52.254;9.618;2023-04-06T05:25:44;9.97;;;6.10;;
15354;SDS011;7777;52.254;9.618;2023-04-06T05:28:10;8.67;;;6.37;;
15354;SDS011;7777;52.254;9.618;2023-04-06T05:30:39;8.33;;;5.97;;
15354;SDS011;7777;52.254;9.618;2023-04-06T05:33:05;8.70;;;5.10;;
15354;SDS011;7777;52.254;9.618;2023-04-06T05:35:31;7.90;;;5.67;;
15354;SDS011;7777;52.254;9.618;2023-04-06T05:37:56;8.43;;;5.63;;
15354;SDS011;7777;52.254;9.618;2023-04-06T05:40:22;8.43;;;5.03;;
15354;SDS011;7777;52.254;9.618;2023-04-06T05:42:48;10.00;;;6.07;;
15354;SDS011;7777;52.254;9.618;2023-04-06T05:45:15;12.50;;;7.17;;
15354;SDS011;7777;52.254;9.618;2023-04-06T05:47:44;8.13;;;5.83;;
15354;SDS011;7777;52.254;9.618;2023-04-06T05:50:10;9.93;;;5.70;;
15354;SDS011;7777;52.254;9.618;2023-04-06T05:52:37;9.47;;;5.73;;
15354;SDS011;7777;52.254;9.618;2023-04-06T05:55:03;11.43;;;6.17;;
15354;SDS011;7777;52.254;9.618;2023-04-06T05:57:29;7.23;;;5.30;;
15354;SDS011;7777;52.254;9.618;2023-04-06T05:59:55;8.23;;;5.47;;
15354;SDS011;7777;52.254;9.618;2023-04-06T06:02:21;6.63;;;5.13;;
15354;SDS011;7777;52.254;9.618;2023-04-06T06:04:47;8.17;;;5.23;;
15354;SDS011;7777;52.254;9.618;2023-04-06T06:07:14;6.67;;;5.40;;
15354;SDS011;7777;52.254;9.618;2023-04-06T06:09:40;8.27;;;5.23;;
15354;SDS011;7777;52.254;9.618;2023-04-06T06:12:06;8.50;;;5.70;;
15354;SDS011;7777;52.254;9.618;2023-04-06T06:14:32;12.80;;;6.60;;
15354;SDS011;7777;52.254;9.618;2023-04-06T06:16:58;13.77;;;7.40;;
15354;SDS011;7777;52.254;9.618;2023-04-06T06:19:23;9.00;;;5.87;;
15354;SDS011;7777;52.254;9.618;2023-04-06T06:21:49;11.07;;;5.93;;
15354;SDS011;7777;52.254;9.618;2023-04-06T06:24:15;7.97;;;5.23;;
15354;SDS011;7777;52.254;9.618;2023-04-06T06:26:41;7.50;;;5.63;;
15354;SDS011;7777;52.254;9.618;2023-04-06T06:29:06;9.90;;;6.47;;
15354;SDS011;7777;52.254;9.618;2023-04-06T06:31:32;9.53;;;5.43;;
15354;SDS011;7777;52.254;9.618;2023-04-06T06:33:58;8.60;;;5.53;;
15354;SDS011;7777;52.254;9.618;2023-04-06T06:36:25;6.80;;;5.53;;
15354;SDS011;7777;52.254;9.618;2023-04-06T06:38:51;9.13;;;6.10;;
15354;SDS011;7777;52.254;9.618;2023-04-06T06:41:16;8.70;;;5.47;;
15354;SDS011;7777;52.254;9.618;2023-04-06T06:43:42;8.07;;;5.50;;
15354;SDS011;7777;52.254;9.618;2023-04-06T06:46:08;8.00;;;5.60;;
15354;SDS011;7777;52.254;9.618;2023-04-06T06:48:34;8.40;;;5.73;;
15354;SDS011;7777;52.254;9.618;2023-04-06T06:51:00;15.33;;;6.57;;
15354;SDS011;7777;52.254;9.618;2023-04-06T06:53:26;10.10;;;5.97;;
15354;SDS011;7777;52.254;9.618;2023-04-06T06:55:51;8.40;;;5.77;;
15354;SDS011;7777;52.254;9.618;2023-04-06T06:58:17;10.23;;;6.10;;
15354;SDS011;7777;52.254;9.618;2023-04-06T07:00:46;8.57;;;5.37;;
15354;SDS011;7777;52.254;9.618;2023-04-06T07:03:12;8.83;;;6.03;;
15354;SDS011;7777;52.254;9.618;2023-04-06T07:05:38;9.83;;;5.70;;
15354;SDS011;7777;52.254;9.618;2023-04-06T07:08:04;7.83;;;5.40;;
15354;SDS011;7777;52.254;9.618;2023-04-06T07:10:30;7.17;;;5.60;;
15354;SDS011;7777;52.254;9.618;2023-04-06T07:12:55;8.87;;;5.97;;
15354;SDS011;7777;52.254;9.618;2023-04-06T07:15:21;10.80;;;5.80;;
15354;SDS011;7777;52.254;9.618;2023-04-06T07:17:47;7.80;;;5.97;;
15354;SDS011;7777;52.254;9.618;2023-04-06T07:20:13;9.60;;;5.67;;
15354;SDS011;7777;52.254;9.618;2023-04-06T07:22:40;8.97;;;6.30;;
15354;SDS011;7777;52.254;9.618;2023-04-06T07:25:08;7.67;;;5.03;;
15354;SDS011;7777;52.254;9.618;2023-04-06T07:27:34;7.20;;;5.57;;
15354;SDS011;7777;52.254;9.618;2023-04-06T07:30:00;9.43;;;6.27;;
15354;SDS011;7777;52.254;9.618;2023-04-06T07:32:25;11.23;;;5.90;;
15354;SDS011;7777;52.254;9.618;2023-04-06T07:34:51;8.23;;;6.70;;
15354;SDS011;7777;52.254;9.618;2023-04-06T07:37:17;8.37;;;5.83;;
15354;SDS011;7777;52.254;9.618;2023-04-06T07:39:42;7.87;;;6.00;;
15354;SDS011;7777;52.254;9.618;2023-04-06T07:42:08;7.43;;;6.10;;
15354;SDS011;7777;52.254;9.618;2023-04-06T07:44:35;11.33;;;5.87;;
15354;SDS011;7777;52.254;9.618;2023-04-06T07:47:00;9.33;;;6.20;;
15354;SDS011;7777;52.254;9.618;2023-04-06T07:49:26;8.27;;;5.97;;
15354;SDS011;7777;52.254;9.618;2023-04-06T07:51:52;9.97;;;6.30;;
15354;SDS011;7777;52.254;9.618;2023-04-06T07:54:18;6.67;;;5.37;;
15354;SDS011;7777;52.254;9.618;2023-04-06T07:56:43;9.43;;;5.50;;
15354;SDS011;7777;52.254;9.618;2023-04-06T07:59:09;7.77;;;5.33;;
15354;SDS011;7777;52.254;9.618;2023-04-06T08:01:36;7.43;;;5.30;;
15354;SDS011;7777;52.254;9.618;2023-04-06T08:04:02;8.17;;;5.03;;
15354;SDS011;7777;52.254;9.618;2023-04-06T08:06:27;8.57;;;5.73;;
15354;SDS011;7777;52.254;9.618;2023-04-06T08:08:53;8.07;;;5.80;;
15354;SDS011;7777;52.254;9.618;2023-04-06T08:11:19;9.23;;;5.67;;
15354;SDS011;7777;52.254;9.618;2023-04-06T08:13:45;7.30;;;5.13;;
15354;SDS011;7777;52.254;9.618;2023-04-06T08:16:11;7.40;;;5.43;;
15354;SDS011;7777;52.254;9.618;2023-04-06T08:18:37;7.47;;;5.73;;
15354;SDS011;7777;52.254;9.618;2023-04-06T08:21:02;9.40;;;5.03;;
15354;SDS011;7777;52.254;9.618;2023-04-06T08:23:28;10.03;;;5.60;;
15354;SDS011;7777;52.254;9.618;2023-04-06T08:25:54;7.03;;;5.20;;
15354;SDS011;7777;52.254;9.618;2023-04-06T08:28:20;8.00;;;6.30;;
15354;SDS011;7777;52.254;9.618;2023-04-06T08:30:46;8.23;;;5.17;;
15354;SDS011;7777;52.254;9.618;2023-04-06T08:33:12;10.60;;;6.13;;
15354;SDS011;7777;52.254;9.618;2023-04-06T08:35:39;8.00;;;5.50;;
15354;SDS011;7777;52.254;9.618;2023-04-06T08:38:06;9.07;;;5.30;;
15354;SDS011;7777;52.254;9.618;2023-04-06T08:40:39;6.73;;;5.43;;
15354;SDS011;7777;52.254;9.618;2023-04-06T08:43:08;9.40;;;5.80;;
15354;SDS011;7777;52.254;9.618;2023-04-06T08:45:40;8.20;;;5.70;;
15354;SDS011;7777;52.254;9.618;2023-04-06T08:48:07;8.97;;;5.20;;
15354;SDS011;7777;52.254;9.618;2023-04-06T08:50:34;9.00;;;5.23;;
15354;SDS011;7777;52.254;9.618;2023-04-06T08:53:00;7.97;;;5.67;;
15354;SDS011;7777;52.254;9.618;2023-04-06T08:55:26;9.63;;;6.00;;
15354;SDS011;7777;52.254;9.618;2023-04-06T08:57:52;10.23;;;6.13;;
15354;SDS011;7777;52.254;9.618;2023-04-06T09:00:20;7.07;;;5.33;;
15354;SDS011;7777;52.254;9.618;2023-04-06T09:02:46;8.13;;;5.80;;
15354;SDS011;7777;52.254;9.618;2023-04-06T09:05:14;8.33;;;5.80;;
15354;SDS011;7777;52.254;9.618;2023-04-06T09:07:40;10.33;;;5.93;;
15354;SDS011;7777;52.254;9.618;2023-04-06T09:10:07;10.87;;;5.70;;
15354;SDS011;7777;52.254;9.618;2023-04-06T09:12:34;10.17;;;6.00;;
15354;SDS011;7777;52.254;9.618;2023-04-06T09:15:00;8.83;;;5.63;;
15354;SDS011;7777;52.254;9.618;2023-04-06T09:17:30;9.53;;;6.23;;
15354;SDS011;7777;52.254;9.618;2023-04-06T09:20:02;8.17;;;6.23;;
15354;SDS011;7777;52.254;9.618;2023-04-06T09:22:38;9.37;;;6.33;;
15354;SDS011;7777;52.254;9.618;2023-04-06T09:25:05;7.57;;;6.03;;
15354;SDS011;7777;52.254;9.618;2023-04-06T09:27:33;6.57;;;5.43;;
15354;SDS011;7777;52.254;9.618;2023-04-06T09:30:10;9.07;;;6.20;;
15354;SDS011;7777;52.254;9.618;2023-04-06T09:32:48;13.33;;;6.27;;
15354;SDS011;7777;52.254;9.618;2023-04-06T09:35:16;7.93;;;6.33;;
15354;SDS011;7777;52.254;9.618;2023-04-06T09:37:45;8.00;;;6.00;;
15354;SDS011;7777;52.254;9.618;2023-04-06T09:40:12;7.87;;;5.93;;
15354;SDS011;7777;52.254;9.618;2023-04-06T09:42:42;9.40;;;6.80;;
15354;SDS011;7777;52.254;9.618;2023-04-06T09:45:11;8.53;;;6.53;;
15354;SDS011;7777;52.254;9.618;2023-04-06T09:47:40;14.33;;;6.67;;
15354;SDS011;7777;52.254;9.618;2023-04-06T09:50:10;9.07;;;6.60;;
15354;SDS011;7777;52.254;9.618;2023-04-06T09:52:39;10.33;;;6.57;;
15354;SDS011;7777;52.254;9.618;2023-04-06T09:55:12;8.97;;;6.30;;
15354;SDS011;7777;52.254;9.618;2023-04-06T09:57:55;7.60;;;6.20;;
15354;SDS011;7777;52.254;9.618;2023-04-06T10:00:29;8.00;;;6.37;;
15354;SDS011;7777;52.254;9.618;2023-04-06T10:03:08;11.10;;;6.90;;
15354;SDS011;7777;52.254;9.618;2023-04-06T10:06:05;10.87;;;7.10;;
15354;SDS011;7777;52.254;9.618;2023-04-06T10:08:37;8.07;;;5.67;;
15354;SDS011;7777;52.254;9.618;2023-04-06T10:11:10;10.47;;;5.43;;
15354;SDS011;7777;52.254;9.618;2023-04-06T10:13:36;13.80;;;5.97;;
15354;SDS011;7777;52.254;9.618;2023-04-06T10:16:02;8.00;;;5.93;;
15354;SDS011;7777;52.254;9.618;2023-04-06T10:18:30;9.63;;;6.07;;
15354;SDS011;7777;52.254;9.618;2023-04-06T10:20:57;9.03;;;5.40;;
15354;SDS011;7777;52.254;9.618;2023-04-06T10:23:42;7.93;;;5.50;;
15354;SDS011;7777;52.254;9.618;2023-04-06T10:26:14;9.17;;;6.03;;
15354;SDS011;7777;52.254;9.618;2023-04-06T10:28:42;7.53;;;5.70;;
15354;SDS011;7777;52.254;9.618;2023-04-06T10:31:09;7.27;;;5.47;;
15354;SDS011;7777;52.254;9.618;2023-04-06T10:33:35;8.43;;;5.73;;
15354;SDS011;7777;52.254;9.618;2023-04-06T10:36:11;8.47;;;5.73;;
15354;SDS011;7777;52.254;9.618;2023-04-06T10:38:47;10.77;;;6.37;;
15354;SDS011;7777;52.254;9.618;2023-04-06T10:41:19;10.10;;;6.90;;
15354;SDS011;7777;52.254;9.618;2023-04-06T10:43:45;8.17;;;6.47;;
15354;SDS011;7777;52.254;9.618;2023-04-06T10:46:25;11.47;;;7.37;;
15354;SDS011;7777;52.254;9.618;2023-04-06T10:48:53;8.73;;;6.97;;
15354;SDS011;7777;52.254;9.618;2023-04-06T10:51:19;9.33;;;6.43;;
15354;SDS011;7777;52.254;9.618;2023-04-06T10:53:52;9.33;;;6.87;;
15354;SDS011;7777;52.254;9.618;2023-04-06T10:56:21;10.77;;;6.77;;
15354;SDS011;7777;52.254;9.618;2023-04-06T10:58:51;12.80;;;6.67;;
15354;SDS011;7777;52.254;9.618;2023-04-06T11:01:21;12.37;;;7.20;;
15354;SDS011;7777;52.254;9.618;2023-04-06T11:03:49;12.13;;;7.27;;
15354;SDS011;7777;52.254;9.618;2023-04-06T11:06:24;10.90;;;7.17;;
15354;SDS011;7777;52.254;9.618;2023-04-06T11:08:53;10.27;;;7.03;;
15354;SDS011;7777;52.254;9.618;2023-04-06T11:11:21;18.97;;;7.60;;
15354;SDS011;7777;52.254;9.618;2023-04-06T11:16:25;9.83;;;6.93;;
15354;SDS011;7777;52.254;9.618;2023-04-06T11:18:55;9.13;;;6.63;;
15354;SDS011;7777;52.254;9.618;2023-04-06T11:24:27;7.73;;;6.57;;
15354;SDS011;7777;52.254;9.618;2023-04-06T11:29:21;9.27;;;6.53;;
15354;SDS011;7777;52.254;9.618;2023-04-06T11:31:48;9.80;;;6.07;;
15354;SDS011;7777;52.254;9.618;2023-04-06T11:34:16;9.50;;;6.83;;
15354;SDS011;7777;52.254;9.618;2023-04-06T11:36:44;10.10;;;7.57;;
15354;SDS011;7777;52.254;9.618;2023-04-06T11:39:12;9.73;;;8.43;;
15354;SDS011;7777;52.254;9.618;2023-04-06T11:41:39;10.10;;;7.37;;
15354;SDS011;7777;52.254;9.618;2023-04-06T11:44:05;11.13;;;6.37;;
15354;SDS011;7777;52.254;9.618;2023-04-06T11:46:31;10.83;;;8.13;;
15354;SDS011;7777;52.254;9.618;2023-04-06T11:48:58;9.93;;;7.50;;
15354;SDS011;7777;52.254;9.618;2023-04-06T11:51:25;10.40;;;7.37;;
15354;SDS011;7777;52.254;9.618;2023-04-06T11:53:51;10.03;;;7.10;;
15354;SDS011;7777;52.254;9.618;2023-04-06T11:56:24;9.13;;;7.13;;
15354;SDS011;7777;52.254;9.618;2023-04-06T11:58:52;10.47;;;7.90;;
15354;SDS011;7777;52.254;9.618;2023-04-06T12:01:23;9.73;;;7.03;;
15354;SDS011;7777;52.254;9.618;2023-04-06T12:03:49;10.50;;;7.13;;
15354;SDS011;7777;52.254;9.618;2023-04-06T12:06:17;10.67;;;6.87;;
15354;SDS011;7777;52.254;9.618;2023-04-06T12:08:43;8.73;;;7.03;;
15354;SDS011;7777;52.254;9.618;2023-04-06T12:11:10;9.57;;;7.83;;
15354;SDS011;7777;52.254;9.618;2023-04-06T12:13:36;10.20;;;8.03;;
15354;SDS011;7777;52.254;9.618;2023-04-06T12:16:02;11.27;;;7.50;;
15354;SDS011;7777;52.254;9.618;2023-04-06T12:18:28;8.67;;;6.70;;
15354;SDS011;7777;52.254;9.618;2023-04-06T12:20:55;8.73;;;7.37;;
15354;SDS011;7777;52.254;9.618;2023-04-06T12:23:21;12.47;;;7.63;;
15354;SDS011;7777;52.254;9.618;2023-04-06T12:25:46;10.13;;;7.97;;
15354;SDS011;7777;52.254;9.618;2023-04-06T12:28:12;9.30;;;7.80;;
15354;SDS011;7777;52.254;9.618;2023-04-06T12:30:38;11.40;;;8.57;;
15354;SDS011;7777;52.254;9.618;2023-04-06T12:33:05;12.93;;;7.87;;
15354;SDS011;7777;52.254;9.618;2023-04-06T12:35:34;10.70;;;7.77;;
15354;SDS011;7777;52.254;9.618;2023-04-06T12:38:02;9.93;;;8.33;;
15354;SDS011;7777;52.254;9.618;2023-04-06T12:40:27;10.63;;;7.77;;
15354;SDS011;7777;52.254;9.618;2023-04-06T12:42:53;11.13;;;7.80;;
15354;SDS011;7777;52.254;9.618;2023-04-06T12:45:19;10.23;;;7.67;;
15354;SDS011;7777;52.254;9.618;2023-04-06T12:47:45;12.57;;;8.57;;
15354;SDS011;7777;52.254;9.618;2023-04-06T12:50:11;12.07;;;8.43;;
15354;SDS011;7777;52.254;9.618;2023-04-06T12:52:36;9.33;;;7.23;;
15354;SDS011;7777;52.254;9.618;2023-04-06T12:55:02;9.67;;;7.80;;
15354;SDS011;7777;52.254;9.618;2023-04-06T12:57:30;11.63;;;8.43;;
15354;SDS011;7777;52.254;9.618;2023-04-06T12:59:56;12.50;;;8.70;;
15354;SDS011;7777;52.254;9.618;2023-04-06T13:02:22;10.90;;;7.17;;
15354;SDS011;7777;52.254;9.618;2023-04-06T13:04:48;9.30;;;7.97;;
15354;SDS011;7777;52.254;9.618;2023-04-06T13:07:15;10.53;;;8.07;;
15354;SDS011;7777;52.254;9.618;2023-04-06T13:09:41;11.97;;;7.37;;
15354;SDS011;7777;52.254;9.618;2023-04-06T13:12:07;11.03;;;7.57;;
15354;SDS011;7777;52.254;9.618;2023-04-06T13:14:32;12.00;;;7.83;;
15354;SDS011;7777;52.254;9.618;2023-04-06T13:16:58;11.83;;;7.93;;
15354;SDS011;7777;52.254;9.618;2023-04-06T13:19:25;10.23;;;7.40;;
15354;SDS011;7777;52.254;9.618;2023-04-06T13:21:51;11.47;;;7.23;;
15354;SDS011;7777;52.254;9.618;2023-04-06T13:24:17;10.33;;;7.73;;
15354;SDS011;7777;52.254;9.618;2023-04-06T13:26:44;9.70;;;7.53;;
15354;SDS011;7777;52.254;9.618;2023-04-06T13:29:10;9.43;;;7.57;;
15354;SDS011;7777;52.254;9.618;2023-04-06T13:31:35;18.10;;;7.80;;
15354;SDS011;7777;52.254;9.618;2023-04-06T13:34:01;10.37;;;7.27;;
15354;SDS011;7777;52.254;9.618;2023-04-06T13:36:27;11.43;;;8.23;;
15354;SDS011;7777;52.254;9.618;2023-04-06T13:38:53;9.53;;;7.73;;
15354;SDS011;7777;52.254;9.618;2023-04-06T13:41:20;10.00;;;7.50;;
15354;SDS011;7777;52.254;9.618;2023-04-06T13:43:47;11.90;;;7.77;;
15354;SDS011;7777;52.254;9.618;2023-04-06T13:46:13;11.77;;;7.43;;
15354;SDS011;7777;52.254;9.618;2023-04-06T13:48:39;9.57;;;7.43;;
15354;SDS011;7777;52.254;9.618;2023-04-06T13:51:12;11.63;;;7.70;;
15354;SDS011;7777;52.254;9.618;2023-04-06T13:53:39;8.00;;;6.37;;
15354;SDS011;7777;52.254;9.618;2023-04-06T13:56:05;9.07;;;7.73;;
15354;SDS011;7777;52.254;9.618;2023-04-06T13:58:32;10.23;;;6.73;;
15354;SDS011;7777;52.254;9.618;2023-04-06T14:01:02;10.33;;;8.23;;
15354;SDS011;7777;52.254;9.618;2023-04-06T14:03:32;9.97;;;7.30;;
15354;SDS011;7777;52.254;9.618;2023-04-06T14:05:58;16.03;;;6.93;;
15354;SDS011;7777;52.254;9.618;2023-04-06T14:08:24;9.77;;;7.57;;
15354;SDS011;7777;52.254;9.618;2023-04-06T14:10:50;11.13;;;7.90;;
15354;SDS011;7777;52.254;9.618;2023-04-06T14:13:15;10.73;;;7.10;;
15354;SDS011;7777;52.254;9.618;2023-04-06T14:15:42;11.53;;;7.37;;
15354;SDS011;7777;52.254;9.618;2023-04-06T14:18:08;11.67;;;6.63;;
15354;SDS011;7777;52.254;9.618;2023-04-06T14:20:34;11.73;;;7.83;;
15354;SDS011;7777;52.254;9.618;2023-04-06T14:23:00;9.90;;;7.30;;
15354;SDS011;7777;52.254;9.618;2023-04-06T14:25:27;9.33;;;7.33;;
15354;SDS011;7777;52.254;9.618;2023-04-06T14:27:53;10.37;;;7.40;;
15354;SDS011;7777;52.254;9.618;2023-04-06T14:30:19;8.97;;;7.17;;
15354;SDS011;7777;52.254;9.618;2023-04-06T14:32:45;12.43;;;8.07;;
15354;SDS011;7777;52.254;9.618;2023-04-06T14:35:10;10.63;;;8.03;;
15354;SDS011;7777;52.254;9.618;2023-04-06T14:37:36;10.87;;;7.93;;
15354;SDS011;7777;52.254;9.618;2023-04-06T14:40:02;11.77;;;7.70;;
15354;SDS011;7777;52.254;9.618;2023-04-06T14:42:28;11.53;;;6.90;;
15354;SDS011;7777;52.254;9.618;2023-04-06T14:44:54;9.70;;;6.63;;
15354;SDS011;7777;52.254;9.618;2023-04-06T14:47:20;12.43;;;8.30;;
15354;SDS011;7777;52.254;9.618;2023-04-06T14:49:50;10.23;;;7.47;;
15354;SDS011;7777;52.254;9.618;2023-04-06T14:52:17;11.87;;;6.93;;
15354;SDS011;7777;52.254;9.618;2023-04-06T14:54:42;10.27;;;7.13;;
15354;SDS011;7777;52.254;9.618;2023-04-06T14:57:08;10.30;;;7.20;;
15354;SDS011;7777;52.254;9.618;2023-04-06T14:59:34;10.57;;;6.87;;
15354;SDS011;7777;52.254;9.618;2023-04-06T15:02:01;14.27;;;7.63;;
15354;SDS011;7777;52.254;9.618;2023-04-06T15:04:28;8.83;;;6.10;;
15354;SDS011;7777;52.254;9.618;2023-04-06T15:06:54;12.87;;;7.63;;